createdAt,value
2023-04-03T00:01:27.321Z,4.03
2023-04-03T00:03:53.971Z,4.23
2023-04-03T00:06:21.802Z,3.13
2023-04-03T00:08:48.299Z,4.23
2023-04-03T00:11:16.419Z,3.97
2023-04-03T00:13:42.989Z,3.53
2023-04-03T00:16:09.897Z,3.10
2023-04-03T00:18:36.441Z,3.60
2023-04-03T00:21:03.098Z,3.40
2023-04-03T00:23:29.595Z,2.50
2023-04-03T00:25:56.450Z,3.10
2023-04-03T00:28:23.000Z,3.73
2023-04-03T00:30:50.049Z,3.50
2023-04-03T00:33:16.780Z,4.40
2023-04-03T00:35:43.531Z,4.03
2023-04-03T00:38:10.166Z,4.67
2023-04-03T00:40:37.584Z,4.53
2023-04-03T00:43:06.816Z,4.80
2023-04-03T00:45:41.070Z,4.53
2023-04-03T00:48:08.241Z,4.77
2023-04-03T00:50:35.937Z,4.93
2023-04-03T00:53:02.758Z,4.80
2023-04-03T00:55:29.251Z,6.03
2023-04-03T00:57:55.833Z,5.63
2023-04-03T01:00:23.541Z,5.53
2023-04-03T01:02:50.841Z,4.87
2023-04-03T01:05:17.439Z,5.43
2023-04-03T01:07:43.950Z,5.97
2023-04-03T01:10:11.755Z,5.47
2023-04-03T01:12:38.992Z,6.43
2023-04-03T01:15:09.998Z,5.83
2023-04-03T01:17:37.706Z,5.90
2023-04-03T01:20:04.218Z,6.17
2023-04-03T01:22:31.882Z,6.73
2023-04-03T01:24:58.395Z,7.77
2023-04-03T01:27:24.873Z,7.40
2023-04-03T01:29:51.402Z,7.60
2023-04-03T01:32:17.894Z,8.83
2023-04-03T01:34:44.414Z,10.53
2023-04-03T01:37:10.961Z,9.00
2023-04-03T01:39:37.488Z,8.33
2023-04-03T01:42:04.797Z,8.97
2023-04-03T01:44:31.358Z,9.17
2023-04-03T01:46:57.865Z,8.27
2023-04-03T01:49:24.398Z,9.27
2023-04-03T01:51:51.007Z,8.10
2023-04-03T01:54:17.523Z,9.10
2023-04-03T01:56:44.128Z,7.93
2023-04-03T01:59:10.702Z,7.23
2023-04-03T02:01:37.588Z,7.07
2023-04-03T02:04:04.257Z,6.90
2023-04-03T02:06:30.969Z,7.60
2023-04-03T02:08:57.515Z,6.50
2023-04-03T02:11:23.991Z,5.93
2023-04-03T02:13:50.533Z,6.97
2023-04-03T02:16:17.451Z,7.33
2023-04-03T02:18:44.010Z,7.67
2023-04-03T02:21:10.547Z,7.03
2023-04-03T02:23:38.009Z,6.03
2023-04-03T02:26:05.583Z,6.53
2023-04-03T02:28:32.052Z,6.03
2023-04-03T02:30:58.596Z,6.07
2023-04-03T02:33:25.112Z,7.27
2023-04-03T02:35:55.785Z,6.80
2023-04-03T02:38:22.579Z,6.60
2023-04-03T02:40:49.118Z,6.77
2023-04-03T02:43:15.828Z,6.03
2023-04-03T02:45:42.322Z,7.97
2023-04-03T02:48:08.925Z,7.17
2023-04-03T02:50:35.729Z,6.50
2023-04-03T02:53:02.439Z,5.60
2023-04-03T02:55:29.041Z,5.10
2023-04-03T02:57:55.561Z,4.33
2023-04-03T03:00:22.105Z,5.27
2023-04-03T03:02:49.733Z,4.67
2023-04-03T03:05:17.375Z,5.30
2023-04-03T03:07:44.015Z,4.73
2023-04-03T03:10:10.637Z,5.57
2023-04-03T03:12:37.146Z,4.37
2023-04-03T03:15:03.843Z,5.20
2023-04-03T03:17:30.488Z,4.33
2023-04-03T03:19:57.024Z,4.17
2023-04-03T03:22:23.577Z,4.23
2023-04-03T03:24:50.076Z,6.20
2023-04-03T03:27:17.239Z,5.17
2023-04-03T03:29:43.856Z,5.07
2023-04-03T03:32:10.336Z,4.17
2023-04-03T03:34:36.919Z,4.53
2023-04-03T03:37:03.467Z,4.20
2023-04-03T03:39:30.019Z,4.93
2023-04-03T03:41:56.698Z,4.40
2023-04-03T03:44:23.171Z,3.30
2023-04-03T03:46:49.727Z,2.77
2023-04-03T03:49:16.413Z,2.20
2023-04-03T03:51:42.931Z,2.63
2023-04-03T03:54:10.529Z,2.63
2023-04-03T03:56:37.123Z,2.20
2023-04-03T03:59:03.729Z,2.93
2023-04-03T04:01:31.047Z,2.67
2023-04-03T04:03:57.660Z,3.07
2023-04-03T04:06:24.344Z,2.63
2023-04-03T04:08:50.962Z,2.40
2023-04-03T04:11:17.490Z,1.90
2023-04-03T04:13:44.010Z,2.37
2023-04-03T04:16:11.036Z,2.63
2023-04-03T04:18:37.552Z,2.30
2023-04-03T04:21:04.061Z,5.83
2023-04-03T04:23:30.611Z,3.33
2023-04-03T04:25:57.100Z,2.10
2023-04-03T04:28:23.586Z,1.97
2023-04-03T04:30:50.072Z,2.40
2023-04-03T04:33:17.440Z,2.17
2023-04-03T04:35:44.690Z,2.10
2023-04-03T04:38:11.924Z,2.07
2023-04-03T04:40:38.827Z,2.43
2023-04-03T04:43:05.361Z,2.57
2023-04-03T04:45:31.845Z,2.10
2023-04-03T04:47:58.448Z,2.67
2023-04-03T04:50:24.970Z,3.80
2023-04-03T04:52:51.586Z,3.67
2023-04-03T04:55:18.138Z,3.17
2023-04-03T04:57:44.658Z,2.90
2023-04-03T05:00:11.974Z,3.73
2023-04-03T05:02:38.502Z,3.30
2023-04-03T05:05:05.634Z,2.80
2023-04-03T05:07:32.335Z,3.20
2023-04-03T05:09:58.876Z,3.13
2023-04-03T05:12:25.674Z,3.17
2023-04-03T05:14:52.211Z,3.53
2023-04-03T05:17:18.741Z,3.60
2023-04-03T05:19:45.554Z,3.93
2023-04-03T05:22:12.188Z,3.30
2023-04-03T05:24:38.724Z,3.73
2023-04-03T05:27:05.310Z,3.27
2023-04-03T05:29:31.905Z,3.93
2023-04-03T05:31:58.472Z,4.70
2023-04-03T05:34:25.081Z,4.27
2023-04-03T05:36:52.090Z,2.67
2023-04-03T05:39:18.845Z,2.97
2023-04-03T05:41:45.886Z,3.37
2023-04-03T05:44:17.245Z,2.87
2023-04-03T05:46:43.763Z,3.43
2023-04-03T05:49:10.321Z,3.40
2023-04-03T05:51:40.217Z,4.03
2023-04-03T05:54:26.057Z,3.60
2023-04-03T05:56:52.817Z,3.53
2023-04-03T05:59:19.690Z,3.73
2023-04-03T06:01:47.790Z,3.10
2023-04-03T06:04:14.680Z,3.30
2023-04-03T06:06:48.668Z,3.53
2023-04-03T06:09:15.868Z,3.73
2023-04-03T06:11:43.025Z,3.87
2023-04-03T06:14:10.368Z,4.33
2023-04-03T06:16:39.373Z,3.80
2023-04-03T06:19:07.010Z,3.30
2023-04-03T06:21:39.366Z,3.93
2023-04-03T06:24:06.247Z,3.53
2023-04-03T06:26:33.076Z,3.33
2023-04-03T06:29:03.820Z,3.40
2023-04-03T06:31:30.699Z,3.40
2023-04-03T06:33:57.610Z,3.50
2023-04-03T06:36:24.187Z,3.93
2023-04-03T06:38:50.828Z,3.63
2023-04-03T06:41:17.579Z,4.07
2023-04-03T06:43:44.693Z,3.63
2023-04-03T06:46:17.955Z,3.40
2023-04-03T06:48:44.717Z,3.40
2023-04-03T06:51:15.223Z,3.60
2023-04-03T06:53:41.886Z,2.50
2023-04-03T06:56:08.721Z,3.77
2023-04-03T06:58:35.636Z,2.80
2023-04-03T07:01:02.210Z,3.07
2023-04-03T07:03:28.853Z,2.30
2023-04-03T07:05:55.387Z,2.90
2023-04-03T07:08:22.400Z,2.97
2023-04-03T07:10:48.967Z,2.87
2023-04-03T07:13:15.732Z,2.80
2023-04-03T07:15:42.325Z,3.40
2023-04-03T07:18:09.343Z,2.33
2023-04-03T07:20:35.985Z,2.63
2023-04-03T07:23:04.272Z,2.57
2023-04-03T07:25:31.228Z,2.73
2023-04-03T07:27:58.866Z,2.00
2023-04-03T07:30:25.807Z,2.40
2023-04-03T07:32:52.572Z,1.97
2023-04-03T07:35:19.269Z,2.00
2023-04-03T07:37:52.441Z,2.87
2023-04-03T07:40:20.769Z,2.70
2023-04-03T07:42:47.813Z,2.50
2023-04-03T07:45:14.682Z,2.50
2023-04-03T07:47:41.692Z,2.73
2023-04-03T07:50:08.827Z,3.30
2023-04-03T07:52:36.687Z,2.57
2023-04-03T07:55:05.107Z,3.30
2023-04-03T07:57:31.764Z,2.57
2023-04-03T07:59:58.335Z,2.43
2023-04-03T08:02:24.976Z,2.57
2023-04-03T08:04:51.732Z,1.97
2023-04-03T08:07:18.495Z,1.80
2023-04-03T08:09:46.079Z,2.40
2023-04-03T08:12:12.764Z,2.43
2023-04-03T08:14:39.345Z,1.97
2023-04-03T08:17:06.520Z,1.63
2023-04-03T08:19:33.320Z,1.70
2023-04-03T08:22:01.601Z,1.57
2023-04-03T08:24:28.190Z,1.60
2023-04-03T08:26:56.496Z,1.30
2023-04-03T08:29:23.220Z,1.30
2023-04-03T08:31:51.334Z,1.00
2023-04-03T08:34:18.181Z,1.27
2023-04-03T08:36:44.942Z,1.33
2023-04-03T08:39:11.778Z,1.67
2023-04-03T08:41:41.087Z,1.20
2023-04-03T08:44:26.623Z,1.10
2023-04-03T08:47:10.490Z,1.00
2023-04-03T08:49:38.972Z,1.10
2023-04-03T08:52:06.944Z,1.50
2023-04-03T08:54:38.956Z,1.50
2023-04-03T08:57:06.356Z,1.00
2023-04-03T08:59:36.510Z,1.00
2023-04-03T09:02:05.701Z,1.37
2023-04-03T09:04:33.188Z,1.30
2023-04-03T09:07:03.246Z,1.20
2023-04-03T09:09:29.798Z,1.20
2023-04-03T09:12:16.132Z,1.50
2023-04-03T09:14:49.969Z,0.90
2023-04-03T09:17:46.135Z,1.10
2023-04-03T09:20:36.753Z,1.00
2023-04-03T09:23:05.329Z,1.00
2023-04-03T09:25:36.426Z,1.80
2023-04-03T09:28:03.845Z,1.33
2023-04-03T09:30:30.797Z,1.00
2023-04-03T09:32:58.441Z,1.17
2023-04-03T09:35:40.550Z,1.03
2023-04-03T09:38:14.394Z,0.80
2023-04-03T09:40:41.963Z,1.07
2023-04-03T09:43:31.033Z,1.23
2023-04-03T09:45:58.530Z,1.03
2023-04-03T09:48:25.855Z,0.83
2023-04-03T09:50:54.116Z,0.70
2023-04-03T09:53:39.440Z,0.80
2023-04-03T09:56:20.983Z,0.73
2023-04-03T09:58:51.164Z,0.90
2023-04-03T10:01:37.188Z,1.10
2023-04-03T10:04:08.207Z,0.90
2023-04-03T10:06:36.804Z,1.00
2023-04-03T10:09:07.958Z,1.10
2023-04-03T10:11:35.057Z,1.20
2023-04-03T10:14:02.281Z,1.40
2023-04-03T10:16:50.364Z,1.00
2023-04-03T10:19:46.467Z,0.53
2023-04-03T10:22:13.596Z,0.80
2023-04-03T10:24:40.128Z,1.20
2023-04-03T10:27:12.448Z,0.80
2023-04-03T10:29:44.245Z,0.60
2023-04-03T10:32:17.910Z,0.63
2023-04-03T10:34:54.710Z,1.30
2023-04-03T10:37:37.701Z,1.37
2023-04-03T10:40:23.131Z,1.20
2023-04-03T10:42:49.843Z,1.17
2023-04-03T10:45:28.366Z,1.33
2023-04-03T10:48:06.337Z,1.23
2023-04-03T10:50:33.053Z,0.90
2023-04-03T10:53:18.340Z,1.17
2023-04-03T10:55:44.905Z,1.83
2023-04-03T10:58:34.899Z,2.53
2023-04-03T11:01:08.182Z,1.47
2023-04-03T11:03:46.752Z,0.83
2023-04-03T11:06:14.738Z,0.83
2023-04-03T11:09:18.655Z,1.77
2023-04-03T11:11:45.315Z,1.67
2023-04-03T11:14:28.364Z,1.40
2023-04-03T11:17:00.791Z,1.70
2023-04-03T11:19:35.367Z,1.17
2023-04-03T11:22:22.213Z,1.53
2023-04-03T11:24:53.630Z,0.90
2023-04-03T11:27:23.937Z,1.17
2023-04-03T11:29:50.681Z,0.97
2023-04-03T11:32:28.789Z,0.80
2023-04-03T11:35:02.072Z,0.80
2023-04-03T11:37:43.604Z,1.10
2023-04-03T11:40:16.650Z,1.30
2023-04-03T11:42:44.855Z,1.00
2023-04-03T11:45:25.743Z,0.80
2023-04-03T11:47:56.061Z,0.90
2023-04-03T11:50:34.881Z,0.80
2023-04-03T11:53:07.587Z,1.37
2023-04-03T11:55:34.949Z,0.90
2023-04-03T11:58:02.073Z,0.70
2023-04-03T12:00:53.927Z,0.60
2023-04-03T12:03:23.660Z,0.63
2023-04-03T12:05:50.798Z,0.90
2023-04-03T12:08:30.363Z,0.90
2023-04-03T12:11:15.810Z,0.90
2023-04-03T12:13:51.318Z,0.87
2023-04-03T12:16:22.838Z,0.90
2023-04-03T12:18:52.327Z,1.37
2023-04-03T12:21:45.406Z,0.90
2023-04-03T12:24:33.732Z,0.90
2023-04-03T12:27:19.262Z,1.10
2023-04-03T12:29:48.520Z,0.77
2023-04-03T12:32:15.179Z,0.80
2023-04-03T12:35:02.598Z,1.20
2023-04-03T12:37:29.492Z,0.87
2023-04-03T12:40:16.216Z,1.03
2023-04-03T12:43:04.239Z,0.87
2023-04-03T12:45:31.307Z,0.90
2023-04-03T12:48:05.275Z,1.40
2023-04-03T12:50:34.385Z,1.10
2023-04-03T12:53:02.904Z,0.83
2023-04-03T12:55:29.578Z,1.10
2023-04-03T12:57:56.488Z,1.33
2023-04-03T13:00:26.948Z,1.10
2023-04-03T13:02:53.983Z,0.90
2023-04-03T13:05:20.896Z,1.00
2023-04-03T13:07:59.119Z,1.20
2023-04-03T13:10:26.089Z,0.90
2023-04-03T13:12:55.512Z,1.50
2023-04-03T13:15:26.854Z,0.80
2023-04-03T13:17:54.018Z,1.20
2023-04-03T13:20:22.283Z,0.90
2023-04-03T13:22:56.857Z,1.30
2023-04-03T13:25:24.721Z,0.93
2023-04-03T13:28:00.419Z,0.90
2023-04-03T13:30:40.832Z,1.10
2023-04-03T13:33:20.108Z,0.80
2023-04-03T13:35:47.507Z,1.03
2023-04-03T13:38:20.605Z,0.80
2023-04-03T13:40:52.002Z,0.87
2023-04-03T13:43:20.951Z,0.57
2023-04-03T13:46:06.669Z,0.80
2023-04-03T13:48:41.190Z,0.80
2023-04-03T13:51:14.176Z,0.60
2023-04-03T13:53:46.264Z,0.80
2023-04-03T13:56:27.351Z,0.77
2023-04-03T13:59:03.618Z,0.70
2023-04-03T14:01:39.942Z,0.90
2023-04-03T14:04:14.192Z,0.90
2023-04-03T14:06:40.973Z,1.00
2023-04-03T14:09:07.704Z,0.97
2023-04-03T14:11:35.404Z,0.90
2023-04-03T14:14:05.755Z,1.10
2023-04-03T14:16:33.611Z,1.43
2023-04-03T14:19:00.544Z,0.90
2023-04-03T14:21:27.372Z,1.00
2023-04-03T14:23:54.035Z,1.03
2023-04-03T14:26:22.012Z,0.90
2023-04-03T14:28:49.605Z,0.77
2023-04-03T14:31:16.976Z,1.00
2023-04-03T14:33:43.856Z,0.83
2023-04-03T14:36:17.610Z,1.00
2023-04-03T14:38:44.468Z,1.00
2023-04-03T14:41:16.638Z,1.00
2023-04-03T14:43:44.324Z,1.10
2023-04-03T14:46:15.119Z,2.93
2023-04-03T14:48:43.126Z,1.50
2023-04-03T14:51:11.745Z,1.10
2023-04-03T14:53:39.362Z,1.27
2023-04-03T14:56:11.816Z,1.47
2023-04-03T14:58:38.506Z,1.30
2023-04-03T15:01:05.346Z,1.50
2023-04-03T15:03:32.169Z,1.47
2023-04-03T15:05:59.896Z,1.50
2023-04-03T15:08:36.046Z,1.97
2023-04-03T15:11:06.499Z,1.00
2023-04-03T15:13:33.322Z,1.60
2023-04-03T15:16:00.411Z,1.30
2023-04-03T15:18:30.922Z,1.30
2023-04-03T15:20:57.952Z,2.20
2023-04-03T15:23:29.068Z,1.87
2023-04-03T15:25:55.766Z,2.83
2023-04-03T15:28:36.286Z,2.57
2023-04-03T15:31:03.144Z,2.30
2023-04-03T15:33:31.760Z,1.10
2023-04-03T15:36:07.098Z,1.10
2023-04-03T15:38:41.909Z,1.20
2023-04-03T15:41:08.696Z,1.20
2023-04-03T15:43:57.405Z,1.20
2023-04-03T15:46:28.192Z,1.20
2023-04-03T15:49:08.366Z,1.10
2023-04-03T15:51:36.495Z,1.10
2023-04-03T15:54:03.317Z,1.40
2023-04-03T15:56:33.545Z,1.37
2023-04-03T15:59:00.405Z,1.47
2023-04-03T16:01:27.123Z,1.53
2023-04-03T16:03:53.961Z,2.20
2023-04-03T16:06:20.617Z,1.30
2023-04-03T16:08:47.668Z,1.50
2023-04-03T16:11:14.380Z,1.40
2023-04-03T16:13:41.914Z,1.57
2023-04-03T16:16:08.800Z,1.50
2023-04-03T16:18:35.767Z,1.97
2023-04-03T16:21:02.714Z,1.57
2023-04-03T16:23:29.344Z,1.30
2023-04-03T16:25:56.019Z,1.80
2023-04-03T16:28:22.745Z,1.60
2023-04-03T16:30:50.646Z,1.30
2023-04-03T16:33:17.508Z,1.00
2023-04-03T16:35:45.295Z,0.90
2023-04-03T16:38:11.916Z,0.90
2023-04-03T16:40:38.672Z,1.00
2023-04-03T16:43:05.558Z,1.10
2023-04-03T16:45:32.244Z,1.53
2023-04-03T16:47:59.368Z,1.20
2023-04-03T16:50:29.629Z,1.07
2023-04-03T16:52:57.545Z,1.83
2023-04-03T16:55:24.329Z,1.50
2023-04-03T16:57:51.226Z,1.73
2023-04-03T17:00:17.919Z,3.30
2023-04-03T17:02:47.235Z,2.93
2023-04-03T17:05:16.703Z,2.57
2023-04-03T17:07:43.338Z,1.70
2023-04-03T17:10:10.083Z,1.40
2023-04-03T17:12:36.724Z,1.40
2023-04-03T17:15:06.032Z,1.60
2023-04-03T17:17:32.955Z,1.77
2023-04-03T17:19:59.672Z,1.50
2023-04-03T17:22:29.203Z,2.80
2023-04-03T17:24:57.464Z,5.67
2023-04-03T17:27:24.141Z,5.33
2023-04-03T17:29:51.082Z,6.17
2023-04-03T17:32:17.857Z,6.43
2023-04-03T17:34:46.567Z,4.23
2023-04-03T17:37:13.205Z,4.63
2023-04-03T17:39:40.142Z,8.40
2023-04-03T17:42:07.505Z,9.77
2023-04-03T17:44:34.802Z,4.67
2023-04-03T17:47:01.595Z,4.30
2023-04-03T17:49:28.684Z,4.10
2023-04-03T17:52:00.764Z,4.20
2023-04-03T17:54:29.229Z,5.20
2023-04-03T17:57:06.295Z,3.00
2023-04-03T17:59:35.418Z,2.47
2023-04-03T18:02:05.918Z,2.63
2023-04-03T18:04:46.759Z,2.67
2023-04-03T18:07:19.768Z,2.43
2023-04-03T18:09:49.894Z,2.93
2023-04-03T18:12:20.561Z,2.83
2023-04-03T18:14:54.405Z,3.03
2023-04-03T18:17:50.777Z,2.97
2023-04-03T18:20:18.235Z,3.33
2023-04-03T18:22:55.015Z,2.40
2023-04-03T18:25:23.462Z,2.43
2023-04-03T18:28:02.171Z,3.30
2023-04-03T18:30:30.240Z,3.40
2023-04-03T18:32:57.837Z,4.20
2023-04-03T18:35:26.820Z,3.37
2023-04-03T18:37:56.056Z,3.60
2023-04-03T18:40:23.433Z,3.80
2023-04-03T18:42:50.445Z,3.70
2023-04-03T18:45:20.629Z,3.20
2023-04-03T18:47:50.946Z,3.37
2023-04-03T18:50:17.981Z,2.23
2023-04-03T18:52:44.909Z,2.80
2023-04-03T18:55:13.126Z,2.67
2023-04-03T18:57:44.140Z,2.83
2023-04-03T19:00:17.684Z,2.60
2023-04-03T19:02:44.641Z,3.00
2023-04-03T19:05:11.869Z,2.60
2023-04-03T19:07:38.782Z,3.17
2023-04-03T19:10:06.515Z,4.33
2023-04-03T19:12:33.676Z,4.77
2023-04-03T19:15:00.327Z,3.60
2023-04-03T19:17:28.751Z,4.03
2023-04-03T19:19:55.775Z,4.00
2023-04-03T19:22:22.639Z,3.50
2023-04-03T19:24:49.297Z,3.83
2023-04-03T19:27:16.004Z,4.80
2023-04-03T19:29:42.824Z,3.93
2023-04-03T19:32:11.927Z,4.33
2023-04-03T19:34:39.870Z,5.07
2023-04-03T19:37:06.603Z,4.37
2023-04-03T19:39:35.440Z,4.57
2023-04-03T19:42:03.000Z,3.90
2023-04-03T19:44:30.425Z,3.80
2023-04-03T19:46:59.463Z,3.80
2023-04-03T19:49:26.263Z,3.40
2023-04-03T19:51:53.631Z,3.07
2023-04-03T19:54:20.666Z,3.10
2023-04-03T19:56:47.510Z,3.27
2023-04-03T19:59:14.259Z,3.37
2023-04-03T20:01:41.326Z,3.80
2023-04-03T20:04:08.105Z,3.70
2023-04-03T20:06:34.857Z,3.47
2023-04-03T20:09:07.039Z,4.50
2023-04-03T20:11:37.209Z,4.00
2023-04-03T20:14:03.965Z,3.30
2023-04-03T20:16:30.771Z,3.77
2023-04-03T20:18:57.622Z,2.97
2023-04-03T20:21:28.923Z,4.20
2023-04-03T20:23:55.666Z,2.80
2023-04-03T20:26:24.709Z,3.33
2023-04-03T20:28:51.449Z,3.90
2023-04-03T20:31:18.159Z,3.70
2023-04-03T20:33:46.212Z,2.90
2023-04-03T20:36:13.115Z,4.00
2023-04-03T20:38:40.775Z,4.70
2023-04-03T20:41:07.868Z,4.80
2023-04-03T20:43:35.362Z,4.23
2023-04-03T20:46:02.526Z,3.77
2023-04-03T20:48:30.299Z,3.87
2023-04-03T20:50:57.238Z,4.10
2023-04-03T20:53:24.038Z,3.47
2023-04-03T20:56:00.845Z,3.40
2023-04-03T20:58:30.472Z,3.00
2023-04-03T21:00:57.428Z,3.63
2023-04-03T21:03:25.977Z,3.27
2023-04-03T21:06:04.367Z,4.17
2023-04-03T21:08:49.607Z,4.63
2023-04-03T21:11:36.597Z,3.93
2023-04-03T21:14:27.916Z,5.20
2023-04-03T21:16:54.497Z,5.77
2023-04-03T21:19:21.804Z,6.53
2023-04-03T21:21:49.207Z,4.87
2023-04-03T21:24:16.569Z,4.67
2023-04-03T21:26:44.279Z,4.57
2023-04-03T21:29:11.636Z,3.83
2023-04-03T21:31:48.454Z,4.67
2023-04-03T21:34:15.830Z,4.20
2023-04-03T21:36:42.664Z,4.77
2023-04-03T21:39:09.506Z,4.10
2023-04-03T21:41:36.088Z,5.17
2023-04-03T21:44:02.935Z,4.80
2023-04-03T21:46:30.174Z,4.47
2023-04-03T21:48:58.113Z,4.43
2023-04-03T21:51:24.905Z,4.33
2023-04-03T21:53:52.766Z,4.90
2023-04-03T21:56:19.921Z,4.13
2023-04-03T21:58:46.608Z,3.93
2023-04-03T22:01:13.969Z,3.73
2023-04-03T22:03:41.621Z,4.10
2023-04-03T22:06:08.793Z,4.17
2023-04-03T22:08:35.527Z,3.83
2023-04-03T22:11:09.122Z,5.00
2023-04-03T22:13:37.677Z,4.07
2023-04-03T22:16:04.389Z,4.00
2023-04-03T22:18:32.707Z,4.67
2023-04-03T22:20:59.324Z,3.80
2023-04-03T22:23:27.450Z,4.60
2023-04-03T22:26:07.591Z,5.27
2023-04-03T22:28:34.753Z,4.70
2023-04-03T22:31:04.201Z,4.77
2023-04-03T22:33:31.264Z,3.63
2023-04-03T22:35:58.368Z,3.73
2023-04-03T22:38:25.965Z,4.37
2023-04-03T22:41:00.239Z,4.10
2023-04-03T22:43:28.270Z,5.60
2023-04-03T22:45:55.193Z,4.43
2023-04-03T22:48:21.971Z,3.87
2023-04-03T22:50:48.876Z,4.20
2023-04-03T22:53:16.184Z,3.90
2023-04-03T22:55:42.827Z,3.73
2023-04-03T22:58:09.384Z,4.20
2023-04-03T23:00:36.359Z,3.93
2023-04-03T23:03:03.216Z,4.37
2023-04-03T23:05:29.988Z,4.23
2023-04-03T23:07:56.563Z,4.60
2023-04-03T23:10:23.185Z,3.50
2023-04-03T23:12:50.866Z,3.73
2023-04-03T23:15:19.766Z,4.40
2023-04-03T23:17:50.134Z,4.03
2023-04-03T23:20:16.845Z,4.40
2023-04-03T23:22:44.423Z,3.97
2023-04-03T23:25:11.490Z,4.50
2023-04-03T23:27:38.213Z,4.37
2023-04-03T23:30:06.566Z,3.80
2023-04-03T23:32:33.222Z,4.60
2023-04-03T23:34:59.879Z,3.57
2023-04-03T23:37:27.657Z,4.23
2023-04-03T23:39:54.300Z,4.00
2023-04-03T23:42:20.914Z,4.13
2023-04-03T23:44:48.191Z,4.17
2023-04-03T23:47:14.866Z,3.60
2023-04-03T23:49:41.595Z,3.73
2023-04-03T23:52:08.220Z,3.80
2023-04-03T23:54:35.053Z,4.07
2023-04-03T23:57:01.641Z,3.93
2023-04-03T23:59:28.400Z,4.43
